createdAt,value
2018-07-15T00:00:35.148Z,16.73
2018-07-15T00:01:35.103Z,16.77
2018-07-15T00:02:35.054Z,16.68
2018-07-15T00:03:34.995Z,16.73
2018-07-15T00:04:34.945Z,16.56
2018-07-15T00:05:34.897Z,16.56
2018-07-15T00:06:34.844Z,16.60
2018-07-15T00:07:34.794Z,16.60
2018-07-15T00:08:34.744Z,16.65
2018-07-15T00:09:34.692Z,16.71
2018-07-15T00:10:34.642Z,16.58
2018-07-15T00:11:34.591Z,16.62
2018-07-15T00:12:34.544Z,16.58
2018-07-15T00:13:34.491Z,16.59
2018-07-15T00:14:34.441Z,16.56
2018-07-15T00:15:34.389Z,16.42
2018-07-15T00:16:34.338Z,16.48
2018-07-15T00:17:34.289Z,16.40
2018-07-15T00:18:34.295Z,16.31
2018-07-15T00:19:34.184Z,16.33
2018-07-15T00:20:34.134Z,16.34
2018-07-15T00:21:34.083Z,16.31
2018-07-15T00:22:34.033Z,16.41
2018-07-15T00:23:33.982Z,16.33
2018-07-15T00:24:33.930Z,16.37
2018-07-15T00:25:33.879Z,16.49
2018-07-15T00:26:33.833Z,16.50
2018-07-15T00:27:33.777Z,16.52
2018-07-15T00:28:33.729Z,16.62
2018-07-15T00:29:33.677Z,16.65
2018-07-15T00:30:33.628Z,16.62
2018-07-15T00:31:33.574Z,16.70
2018-07-15T00:32:33.522Z,16.81
2018-07-15T00:33:33.473Z,16.90
2018-07-15T00:34:33.429Z,16.92
2018-07-15T00:35:33.377Z,16.88
2018-07-15T00:36:33.324Z,16.74
2018-07-15T00:37:33.270Z,16.75
2018-07-15T00:38:33.218Z,16.70
2018-07-15T00:39:33.171Z,16.63
2018-07-15T00:40:33.119Z,16.63
2018-07-15T00:41:33.069Z,16.71
2018-07-15T00:42:33.016Z,16.63
2018-07-15T00:43:32.969Z,16.58
2018-07-15T00:44:32.916Z,16.71
2018-07-15T00:45:32.862Z,16.65
2018-07-15T00:46:32.812Z,16.68
2018-07-15T00:47:32.762Z,16.73
2018-07-15T00:48:32.712Z,16.65
2018-07-15T00:49:32.663Z,16.73
2018-07-15T00:50:32.608Z,16.74
2018-07-15T00:51:32.559Z,16.71
2018-07-15T00:52:32.508Z,16.56
2018-07-15T00:53:32.459Z,16.71
2018-07-15T00:54:32.409Z,16.58
2018-07-15T00:55:32.355Z,16.58
2018-07-15T00:56:32.304Z,16.55
2018-07-15T00:57:32.256Z,16.56
2018-07-15T00:58:32.204Z,16.55
2018-07-15T00:59:32.152Z,16.59
2018-07-15T01:00:32.102Z,16.73
2018-07-15T01:01:32.054Z,16.70
2018-07-15T01:02:32.001Z,16.73
2018-07-15T01:03:31.949Z,16.59
2018-07-15T01:04:31.898Z,16.58
2018-07-15T01:05:31.850Z,16.48
2018-07-15T01:06:31.797Z,16.44
2018-07-15T01:07:31.747Z,16.49
2018-07-15T01:08:31.775Z,16.45
2018-07-15T01:09:31.645Z,16.49
2018-07-15T01:10:31.594Z,16.41
2018-07-15T01:11:31.543Z,16.52
2018-07-15T01:12:31.492Z,16.48
2018-07-15T01:13:31.443Z,16.53
2018-07-15T01:14:31.393Z,16.41
2018-07-15T01:15:31.340Z,16.41
2018-07-15T01:16:31.288Z,16.48
2018-07-15T01:17:31.239Z,16.49
2018-07-15T01:18:31.189Z,16.44
2018-07-15T01:19:31.136Z,16.45
2018-07-15T01:20:31.087Z,16.41
2018-07-15T01:21:31.036Z,16.38
2018-07-15T01:22:30.986Z,16.40
2018-07-15T01:23:30.934Z,16.33
2018-07-15T01:24:30.883Z,16.16
2018-07-15T01:25:30.833Z,16.04
2018-07-15T01:26:30.782Z,15.97
2018-07-15T01:27:30.733Z,15.92
2018-07-15T01:28:30.680Z,15.72
2018-07-15T01:29:30.630Z,15.66
2018-07-15T01:30:30.577Z,15.76
2018-07-15T01:31:30.527Z,15.74
2018-07-15T01:32:30.474Z,15.63
2018-07-15T01:33:30.424Z,15.67
2018-07-15T01:34:30.373Z,15.57
2018-07-15T01:35:30.322Z,15.57
2018-07-15T01:36:30.269Z,15.59
2018-07-15T01:37:30.219Z,15.63
2018-07-15T01:38:30.167Z,15.63
2018-07-15T01:39:30.116Z,15.57
2018-07-15T01:40:30.066Z,15.64
2018-07-15T01:41:30.016Z,15.70
2018-07-15T01:42:29.962Z,15.78
2018-07-15T01:43:29.913Z,15.68
2018-07-15T01:44:29.861Z,15.82
2018-07-15T01:45:29.807Z,15.81
2018-07-15T01:46:29.760Z,15.86
2018-07-15T01:47:29.706Z,15.88
2018-07-15T01:48:29.654Z,15.79
2018-07-15T01:49:29.605Z,15.93
2018-07-15T01:50:29.551Z,15.92
2018-07-15T01:51:29.501Z,15.82
2018-07-15T01:52:29.451Z,15.76
2018-07-15T01:53:29.399Z,15.72
2018-07-15T01:54:29.348Z,15.63
2018-07-15T01:55:29.296Z,15.64
2018-07-15T01:56:29.244Z,15.60
2018-07-15T01:57:29.196Z,15.66
2018-07-15T01:58:29.145Z,15.64
2018-07-15T01:59:29.091Z,15.57
2018-07-15T02:00:29.037Z,15.59
2018-07-15T02:01:28.988Z,15.63
2018-07-15T02:02:28.937Z,15.45
2018-07-15T02:03:28.884Z,15.59
2018-07-15T02:04:28.833Z,15.56
2018-07-15T02:05:28.782Z,15.57
2018-07-15T02:06:28.731Z,15.59
2018-07-15T02:07:28.679Z,15.63
2018-07-15T02:08:28.627Z,15.57
2018-07-15T02:09:28.594Z,15.60
2018-07-15T02:10:28.527Z,15.68
2018-07-15T02:11:28.477Z,15.68
2018-07-15T02:12:28.425Z,15.78
2018-07-15T02:13:28.373Z,15.79
2018-07-15T02:14:28.321Z,15.76
2018-07-15T02:15:28.269Z,15.68
2018-07-15T02:16:28.218Z,15.79
2018-07-15T02:17:28.169Z,15.81
2018-07-15T02:18:28.119Z,15.86
2018-07-15T02:19:28.064Z,15.82
2018-07-15T02:20:28.013Z,15.81
2018-07-15T02:21:27.962Z,15.76
2018-07-15T02:22:27.912Z,15.64
2018-07-15T02:23:27.862Z,15.64
2018-07-15T02:24:27.807Z,15.46
2018-07-15T02:25:27.756Z,15.27
2018-07-15T02:26:27.705Z,15.20
2018-07-15T02:27:27.654Z,15.11
2018-07-15T02:28:27.603Z,15.02
2018-07-15T02:29:27.555Z,14.91
2018-07-15T02:30:27.500Z,14.94
2018-07-15T02:31:27.447Z,15.02
2018-07-15T02:32:27.395Z,15.01
2018-07-15T02:33:27.345Z,15.08
2018-07-15T02:34:27.292Z,15.03
2018-07-15T02:35:27.246Z,15.20
2018-07-15T02:36:27.198Z,15.13
2018-07-15T02:37:27.137Z,15.24
2018-07-15T02:38:27.086Z,15.27
2018-07-15T02:39:27.033Z,15.15
2018-07-15T02:40:26.981Z,15.27
2018-07-15T02:41:26.932Z,15.30
2018-07-15T02:42:26.879Z,15.27
2018-07-15T02:43:26.838Z,15.28
2018-07-15T02:44:26.778Z,15.27
2018-07-15T02:45:26.724Z,15.27
2018-07-15T02:46:26.673Z,15.20
2018-07-15T02:47:26.622Z,15.21
2018-07-15T02:48:26.567Z,15.19
2018-07-15T02:49:26.517Z,15.26
2018-07-15T02:50:26.468Z,15.27
2018-07-15T02:51:26.413Z,15.28
2018-07-15T02:52:26.363Z,15.27
2018-07-15T02:53:26.311Z,15.30
2018-07-15T02:54:26.260Z,15.26
2018-07-15T02:55:26.208Z,15.23
2018-07-15T02:56:26.153Z,15.08
2018-07-15T02:57:26.105Z,15.11
2018-07-15T02:58:26.057Z,15.06
2018-07-15T02:59:25.999Z,14.95
2018-07-15T03:00:25.947Z,14.93
2018-07-15T03:01:25.895Z,14.84
2018-07-15T03:02:25.842Z,14.65
2018-07-15T03:03:25.792Z,14.64
2018-07-15T03:04:25.744Z,14.62
2018-07-15T03:05:25.688Z,14.54
2018-07-15T03:06:25.639Z,14.60
2018-07-15T03:07:25.584Z,14.56
2018-07-15T03:08:25.531Z,14.52
2018-07-15T03:09:25.480Z,14.61
2018-07-15T03:10:25.426Z,14.62
2018-07-15T03:11:25.374Z,14.64
2018-07-15T03:12:25.327Z,14.61
2018-07-15T03:13:25.269Z,14.65
2018-07-15T03:14:25.240Z,14.65
2018-07-15T03:15:25.166Z,14.65
2018-07-15T03:16:25.113Z,14.67
2018-07-15T03:17:25.118Z,14.80
2018-07-15T03:18:25.010Z,14.75
2018-07-15T03:19:24.958Z,14.87
2018-07-15T03:20:24.933Z,14.83
2018-07-15T03:21:24.855Z,14.88
2018-07-15T03:22:24.804Z,14.83
2018-07-15T03:23:24.749Z,14.86
2018-07-15T03:24:24.696Z,14.91
2018-07-15T03:25:24.659Z,14.86
2018-07-15T03:26:24.595Z,14.90
2018-07-15T03:27:24.543Z,14.87
2018-07-15T03:28:24.487Z,14.91
2018-07-15T03:29:24.435Z,14.80
2018-07-15T03:30:24.466Z,14.88
2018-07-15T03:31:24.332Z,14.86
2018-07-15T03:32:24.280Z,14.84
2018-07-15T03:33:24.227Z,14.87
2018-07-15T03:34:24.176Z,14.93
2018-07-15T03:35:24.123Z,14.98
2018-07-15T03:36:24.071Z,14.86
2018-07-15T03:37:24.019Z,14.80
2018-07-15T03:38:23.971Z,14.68
2018-07-15T03:39:23.916Z,14.53
2018-07-15T03:40:23.863Z,14.56
2018-07-15T03:41:23.811Z,14.49
2018-07-15T03:42:23.759Z,14.44
2018-07-15T03:43:23.706Z,14.37
2018-07-15T03:44:23.654Z,14.29
2018-07-15T03:45:23.603Z,14.34
2018-07-15T03:46:23.549Z,14.38
2018-07-15T03:47:23.496Z,14.34
2018-07-15T03:48:23.446Z,14.42
2018-07-15T03:49:23.392Z,14.35
2018-07-15T03:50:23.340Z,14.31
2018-07-15T03:51:23.288Z,14.42
2018-07-15T03:52:23.236Z,14.34
2018-07-15T03:53:23.184Z,14.31
2018-07-15T03:54:23.131Z,14.34
2018-07-15T03:55:23.082Z,14.31
2018-07-15T03:56:23.027Z,14.34
2018-07-15T03:57:22.981Z,14.43
2018-07-15T03:58:22.923Z,14.49
2018-07-15T03:59:22.869Z,14.43
2018-07-15T04:00:22.818Z,14.53
2018-07-15T04:01:22.766Z,14.52
2018-07-15T04:02:22.713Z,14.56
2018-07-15T04:03:22.661Z,14.54
2018-07-15T04:04:22.609Z,14.54
2018-07-15T04:05:22.556Z,14.54
2018-07-15T04:06:22.505Z,14.60
2018-07-15T04:07:22.455Z,14.56
2018-07-15T04:08:22.419Z,14.67
2018-07-15T04:09:22.349Z,14.65
2018-07-15T04:10:22.296Z,14.65
2018-07-15T04:11:22.243Z,14.69
2018-07-15T04:12:22.196Z,14.68
2018-07-15T04:13:22.140Z,14.68
2018-07-15T04:14:22.091Z,14.74
2018-07-15T04:15:22.035Z,14.75
2018-07-15T04:16:21.988Z,14.78
2018-07-15T04:17:21.931Z,14.83
2018-07-15T04:18:21.879Z,14.84
2018-07-15T04:19:21.826Z,14.86
2018-07-15T04:20:21.775Z,14.93
2018-07-15T04:21:21.723Z,14.93
2018-07-15T04:22:21.672Z,15.03
2018-07-15T04:23:21.620Z,14.99
2018-07-15T04:24:21.566Z,14.99
2018-07-15T04:25:21.515Z,15.11
2018-07-15T04:26:21.463Z,15.08
2018-07-15T04:27:21.410Z,15.03
2018-07-15T04:28:21.399Z,15.11
2018-07-15T04:29:21.306Z,15.02
2018-07-15T04:30:21.256Z,14.91
2018-07-15T04:31:21.209Z,14.80
2018-07-15T04:32:21.168Z,14.67
2018-07-15T04:33:21.100Z,14.68
2018-07-15T04:34:21.048Z,14.57
2018-07-15T04:35:20.995Z,14.57
2018-07-15T04:36:20.942Z,14.53
2018-07-15T04:37:20.891Z,14.57
2018-07-15T04:38:20.839Z,14.65
2018-07-15T04:39:20.785Z,14.71
2018-07-15T04:40:20.733Z,14.67
2018-07-15T04:41:20.683Z,14.72
2018-07-15T04:42:20.629Z,14.86
2018-07-15T04:43:20.575Z,14.90
2018-07-15T04:44:20.523Z,14.93
2018-07-15T04:45:20.475Z,14.98
2018-07-15T04:46:20.419Z,15.06
2018-07-15T04:47:20.367Z,15.05
2018-07-15T04:48:20.315Z,15.12
2018-07-15T04:49:20.266Z,15.06
2018-07-15T04:50:20.211Z,15.15
2018-07-15T04:51:20.161Z,15.19
2018-07-15T04:52:20.106Z,15.26
2018-07-15T04:53:20.055Z,15.30
2018-07-15T04:54:20.005Z,15.36
2018-07-15T04:55:19.951Z,15.39
2018-07-15T04:56:19.901Z,15.51
2018-07-15T04:57:19.847Z,15.46
2018-07-15T04:58:19.794Z,15.57
2018-07-15T04:59:19.746Z,15.66
2018-07-15T05:00:19.691Z,15.70
2018-07-15T05:01:19.639Z,15.74
2018-07-15T05:02:19.589Z,15.84
2018-07-15T05:03:19.537Z,15.74
2018-07-15T05:04:19.487Z,15.85
2018-07-15T05:05:19.433Z,15.89
2018-07-15T05:06:19.381Z,15.93
2018-07-15T05:07:19.329Z,15.84
2018-07-15T05:08:19.280Z,15.85
2018-07-15T05:09:19.226Z,15.85
2018-07-15T05:10:19.174Z,15.93
2018-07-15T05:11:19.132Z,15.96
2018-07-15T05:12:19.087Z,15.99
2018-07-15T05:13:19.021Z,16.06
2018-07-15T05:14:18.967Z,16.12
2018-07-15T05:15:18.924Z,16.11
2018-07-15T05:16:18.863Z,16.14
2018-07-15T05:17:18.815Z,16.12
2018-07-15T05:18:18.785Z,16.20
2018-07-15T05:19:18.711Z,16.33
2018-07-15T05:20:18.665Z,16.33
2018-07-15T05:21:18.608Z,16.45
2018-07-15T05:22:18.557Z,16.49
2018-07-15T05:23:18.505Z,16.52
2018-07-15T05:24:18.456Z,16.74
2018-07-15T05:25:18.404Z,16.77
2018-07-15T05:26:18.353Z,16.89
2018-07-15T05:27:18.305Z,16.98
2018-07-15T05:28:18.253Z,16.95
2018-07-15T05:29:18.201Z,16.99
2018-07-15T05:30:18.150Z,16.98
2018-07-15T05:31:18.101Z,17.03
2018-07-15T05:32:18.049Z,17.13
2018-07-15T05:33:18.000Z,17.08
2018-07-15T05:34:17.950Z,17.26
2018-07-15T05:35:17.896Z,17.29
2018-07-15T05:36:17.847Z,17.35
2018-07-15T05:37:17.796Z,17.43
2018-07-15T05:38:17.748Z,17.54
2018-07-15T05:39:17.696Z,17.53
2018-07-15T05:40:17.651Z,17.69
2018-07-15T05:41:17.593Z,17.70
2018-07-15T05:42:17.545Z,17.84
2018-07-15T05:43:17.492Z,17.81
2018-07-15T05:44:17.481Z,17.92
2018-07-15T05:45:17.393Z,18.03
2018-07-15T05:46:17.342Z,18.03
2018-07-15T05:47:17.292Z,18.06
2018-07-15T05:48:17.241Z,18.12
2018-07-15T05:49:17.192Z,18.12
2018-07-15T05:50:17.143Z,18.07
2018-07-15T05:51:17.090Z,18.24
2018-07-15T05:52:17.040Z,18.24
2018-07-15T05:53:16.989Z,18.25
2018-07-15T05:54:16.938Z,18.34
2018-07-15T05:55:16.889Z,18.42
2018-07-15T05:56:16.840Z,18.46
2018-07-15T05:57:16.788Z,18.44
2018-07-15T05:58:16.738Z,18.62
2018-07-15T05:59:16.689Z,18.64
2018-07-15T06:00:16.640Z,18.73
2018-07-15T06:01:16.588Z,18.82
2018-07-15T06:02:16.538Z,18.92
2018-07-15T06:03:16.487Z,18.98
2018-07-15T06:04:16.438Z,19.08
2018-07-15T06:05:16.391Z,19.13
2018-07-15T06:06:16.338Z,19.11
2018-07-15T06:07:16.288Z,19.24
2018-07-15T06:08:16.240Z,19.21
2018-07-15T06:09:16.190Z,19.38
2018-07-15T06:10:16.139Z,19.35
2018-07-15T06:11:16.093Z,19.42
2018-07-15T06:12:16.039Z,19.48
2018-07-15T06:13:15.990Z,19.51
2018-07-15T06:14:15.941Z,19.48
2018-07-15T06:15:15.890Z,19.58
2018-07-15T06:16:15.841Z,19.48
2018-07-15T06:17:15.793Z,19.58
2018-07-15T06:18:15.744Z,19.60
2018-07-15T06:19:15.698Z,19.73
2018-07-15T06:20:15.645Z,19.72
2018-07-15T06:21:15.596Z,19.72
2018-07-15T06:22:15.548Z,19.79
2018-07-15T06:23:15.496Z,19.83
2018-07-15T06:24:15.448Z,19.95
2018-07-15T06:25:15.398Z,19.94
2018-07-15T06:26:15.348Z,19.90
2018-07-15T06:27:15.297Z,19.97
2018-07-15T06:28:15.247Z,20.05
2018-07-15T06:29:15.199Z,20.08
2018-07-15T06:30:15.149Z,20.15
2018-07-15T06:31:15.100Z,20.20
2018-07-15T06:32:15.052Z,20.25
2018-07-15T06:33:15.007Z,20.27
2018-07-15T06:34:14.955Z,20.39
2018-07-15T06:35:14.905Z,20.43
2018-07-15T06:36:14.855Z,20.33
2018-07-15T06:37:14.806Z,20.42
2018-07-15T06:38:14.758Z,20.51
2018-07-15T06:39:14.707Z,20.53
2018-07-15T06:40:14.659Z,20.62
2018-07-15T06:41:14.610Z,20.61
2018-07-15T06:42:14.566Z,20.68
2018-07-15T06:43:14.511Z,20.74
2018-07-15T06:44:14.463Z,20.86
2018-07-15T06:45:14.416Z,20.87
2018-07-15T06:46:14.367Z,20.89
2018-07-15T06:47:14.316Z,20.95
2018-07-15T06:48:14.268Z,20.98
2018-07-15T06:49:14.228Z,21.09
2018-07-15T06:50:14.171Z,21.16
2018-07-15T06:51:14.123Z,21.24
2018-07-15T06:52:14.074Z,21.35
2018-07-15T06:53:14.028Z,21.29
2018-07-15T06:54:13.978Z,21.46
2018-07-15T06:55:13.930Z,21.51
2018-07-15T06:56:13.880Z,21.57
2018-07-15T06:57:13.839Z,21.67
2018-07-15T06:58:13.787Z,21.81
2018-07-15T06:59:13.735Z,21.78
2018-07-15T07:00:13.689Z,21.99
2018-07-15T07:01:13.643Z,22.10
2018-07-15T07:02:13.593Z,22.20
2018-07-15T07:03:13.544Z,22.28
2018-07-15T07:04:13.561Z,22.39
2018-07-15T07:05:13.450Z,22.46
2018-07-15T07:06:13.400Z,22.57
2018-07-15T07:07:13.435Z,22.71
2018-07-15T07:08:13.307Z,22.74
2018-07-15T07:09:13.259Z,22.84
2018-07-15T07:10:13.222Z,22.99
2018-07-15T07:11:13.163Z,22.99
2018-07-15T07:12:13.117Z,23.20
2018-07-15T07:13:13.072Z,23.34
2018-07-15T07:14:13.088Z,23.40
2018-07-15T07:15:13.023Z,23.55
2018-07-15T07:16:12.927Z,23.61
2018-07-15T07:17:12.882Z,23.60
2018-07-15T07:18:12.834Z,23.60
2018-07-15T07:19:12.789Z,23.70
2018-07-15T07:20:12.749Z,23.70
2018-07-15T07:21:12.694Z,23.71
2018-07-15T07:22:12.650Z,23.76
2018-07-15T07:23:12.603Z,23.82
2018-07-15T07:24:12.556Z,23.65
2018-07-15T07:25:12.511Z,23.75
2018-07-15T07:26:12.465Z,23.79
2018-07-15T07:27:12.417Z,23.80
2018-07-15T07:28:12.371Z,23.82
2018-07-15T07:29:12.327Z,23.82
2018-07-15T07:30:12.279Z,23.95
2018-07-15T07:31:12.232Z,23.92
2018-07-15T07:32:12.198Z,23.92
2018-07-15T07:33:12.140Z,24.05
2018-07-15T07:34:12.095Z,24.07
2018-07-15T07:35:12.048Z,24.02
2018-07-15T07:36:12.007Z,23.98
2018-07-15T07:37:11.959Z,24.00
2018-07-15T07:38:11.929Z,23.98
2018-07-15T07:39:11.906Z,23.97
2018-07-15T07:40:11.821Z,23.97
2018-07-15T07:41:11.784Z,24.01
2018-07-15T07:42:11.726Z,24.05
2018-07-15T07:43:11.682Z,24.12
2018-07-15T07:44:11.637Z,24.10
2018-07-15T07:45:11.593Z,24.12
2018-07-15T07:46:11.545Z,24.22
2018-07-15T07:47:11.499Z,24.26
2018-07-15T07:48:11.453Z,24.31
2018-07-15T07:49:11.413Z,24.41
2018-07-15T07:50:11.363Z,24.60
2018-07-15T07:51:11.321Z,24.57
2018-07-15T07:52:11.271Z,24.73
2018-07-15T07:53:11.242Z,24.76
2018-07-15T07:54:11.181Z,24.90
2018-07-15T07:55:11.134Z,24.90
2018-07-15T07:56:11.090Z,25.00
2018-07-15T07:57:11.042Z,25.19
2018-07-15T07:58:10.999Z,25.20
2018-07-15T07:59:10.955Z,25.20
2018-07-15T08:00:10.908Z,25.19
2018-07-15T08:01:10.864Z,25.34
2018-07-15T08:02:25.351Z,25.43
2018-07-15T08:03:10.771Z,25.43
2018-07-15T08:04:10.727Z,25.49
2018-07-15T08:05:10.684Z,25.49
2018-07-15T08:06:10.638Z,25.54
2018-07-15T08:07:10.590Z,25.67
2018-07-15T08:08:10.548Z,25.69
2018-07-15T08:09:10.500Z,25.71
2018-07-15T08:10:10.459Z,25.86
2018-07-15T08:11:10.410Z,25.90
2018-07-15T08:12:10.366Z,26.04
2018-07-15T08:13:10.321Z,26.09
2018-07-15T08:14:10.276Z,26.02
2018-07-15T08:15:10.251Z,26.15
2018-07-15T08:16:10.185Z,26.21
2018-07-15T08:17:10.143Z,26.12
2018-07-15T08:18:10.097Z,26.22
2018-07-15T08:19:10.052Z,26.15
2018-07-15T08:20:10.010Z,26.21
2018-07-15T08:21:09.966Z,26.36
2018-07-15T08:22:09.923Z,26.37
2018-07-15T08:23:09.872Z,26.31
2018-07-15T08:24:09.830Z,26.36
2018-07-15T08:25:09.784Z,26.36
2018-07-15T08:26:09.741Z,26.32
2018-07-15T08:27:09.695Z,26.25
2018-07-15T08:28:09.701Z,26.32
2018-07-15T08:29:09.608Z,26.29
2018-07-15T08:30:09.562Z,26.22
2018-07-15T08:31:09.517Z,26.18
2018-07-15T08:32:09.508Z,26.17
2018-07-15T08:33:09.429Z,26.15
2018-07-15T08:34:09.385Z,26.12
2018-07-15T08:35:09.340Z,26.24
2018-07-15T08:36:09.296Z,26.32
2018-07-15T08:37:09.253Z,26.32
2018-07-15T08:38:09.209Z,26.52
2018-07-15T08:39:09.164Z,26.52
2018-07-15T08:40:09.119Z,26.49
2018-07-15T08:41:09.076Z,26.65
2018-07-15T08:42:09.032Z,26.65
2018-07-15T08:43:08.989Z,26.73
2018-07-15T08:44:08.943Z,26.72
2018-07-15T08:45:08.899Z,26.77
2018-07-15T08:46:08.975Z,26.74
2018-07-15T08:47:08.811Z,26.91
2018-07-15T08:48:08.767Z,26.94
2018-07-15T08:49:08.723Z,26.84
2018-07-15T08:50:08.678Z,26.92
2018-07-15T08:51:08.634Z,26.91
2018-07-15T08:52:08.637Z,26.94
2018-07-15T08:53:08.554Z,26.83
2018-07-15T08:54:08.502Z,26.77
2018-07-15T08:55:08.460Z,26.79
2018-07-15T08:56:08.416Z,26.72
2018-07-15T08:57:08.371Z,26.62
2018-07-15T08:58:08.329Z,26.54
2018-07-15T08:59:08.283Z,26.57
2018-07-15T09:00:08.239Z,26.55
2018-07-15T09:01:08.199Z,26.47
2018-07-15T09:02:08.152Z,26.42
2018-07-15T09:03:08.109Z,26.49
2018-07-15T09:04:08.063Z,26.43
2018-07-15T09:05:08.021Z,26.50
2018-07-15T09:06:07.976Z,26.46
2018-07-15T09:07:07.932Z,26.46
2018-07-15T09:08:07.888Z,26.40
2018-07-15T09:09:07.845Z,26.42
2018-07-15T09:10:07.802Z,26.40
2018-07-15T09:11:07.755Z,26.50
2018-07-15T09:12:07.711Z,26.52
2018-07-15T09:13:07.668Z,26.65
2018-07-15T09:14:07.625Z,26.55
2018-07-15T09:15:07.582Z,26.61
2018-07-15T09:16:07.535Z,26.62
2018-07-15T09:17:07.492Z,26.68
2018-07-15T09:18:07.448Z,26.69
2018-07-15T09:19:07.402Z,26.68
2018-07-15T09:20:07.374Z,26.72
2018-07-15T09:21:07.315Z,26.76
2018-07-15T09:22:07.274Z,26.87
2018-07-15T09:23:07.226Z,26.91
2018-07-15T09:24:07.194Z,26.98
2018-07-15T09:25:07.140Z,27.09
2018-07-15T09:26:07.127Z,27.20
2018-07-15T09:27:07.055Z,27.42
2018-07-15T09:28:07.010Z,27.38
2018-07-15T09:29:06.965Z,27.53
2018-07-15T09:30:06.924Z,27.51
2018-07-15T09:31:06.882Z,27.46
2018-07-15T09:32:06.876Z,27.41
2018-07-15T09:33:06.793Z,27.53
2018-07-15T09:34:06.748Z,27.54
2018-07-15T09:35:06.704Z,27.62
2018-07-15T09:36:06.664Z,27.76
2018-07-15T09:37:06.619Z,27.88
2018-07-15T09:38:06.578Z,27.80
2018-07-15T09:39:06.533Z,27.82
2018-07-15T09:40:06.501Z,27.89
2018-07-15T09:41:06.448Z,28.09
2018-07-15T09:42:06.404Z,27.88
2018-07-15T09:43:06.870Z,27.86
2018-07-15T09:44:06.321Z,27.85
2018-07-15T09:45:06.382Z,27.71
2018-07-15T09:46:06.233Z,27.80
2018-07-15T09:47:06.187Z,27.74
2018-07-15T09:48:06.198Z,27.77
2018-07-15T09:49:06.104Z,27.77
2018-07-15T09:50:06.065Z,27.84
2018-07-15T09:51:06.016Z,28.03
2018-07-15T09:52:05.975Z,28.13
2018-07-15T09:53:05.931Z,28.21
2018-07-15T09:54:05.889Z,28.17
2018-07-15T09:55:05.846Z,28.28
2018-07-15T09:56:05.802Z,28.60
2018-07-15T09:57:05.762Z,28.69
2018-07-15T09:58:05.717Z,28.81
2018-07-15T09:59:05.674Z,29.04
2018-07-15T10:00:05.639Z,29.13
2018-07-15T10:01:05.590Z,29.18
2018-07-15T10:02:05.548Z,29.18
2018-07-15T10:03:05.503Z,29.10
2018-07-15T10:04:05.463Z,29.25
2018-07-15T10:05:05.424Z,29.37
2018-07-15T10:06:05.378Z,29.53
2018-07-15T10:07:05.337Z,29.63
2018-07-15T10:08:05.298Z,29.62
2018-07-15T10:09:05.252Z,29.65
2018-07-15T10:10:05.211Z,29.40
2018-07-15T10:11:05.171Z,29.18
2018-07-15T10:12:05.125Z,29.07
2018-07-15T10:13:05.088Z,29.06
2018-07-15T10:14:05.043Z,29.03
2018-07-15T10:15:05.000Z,29.01
2018-07-15T10:16:04.958Z,29.03
2018-07-15T10:17:04.916Z,29.15
2018-07-15T10:18:04.881Z,29.20
2018-07-15T10:19:04.879Z,29.25
2018-07-15T10:20:04.790Z,29.37
2018-07-15T10:21:04.750Z,29.44
2018-07-15T10:22:04.709Z,29.41
2018-07-15T10:23:04.665Z,29.59
2018-07-15T10:24:04.623Z,29.74
2018-07-15T10:25:04.580Z,29.86
2018-07-15T10:26:04.538Z,29.87
2018-07-15T10:27:04.502Z,29.75
2018-07-15T10:28:04.455Z,29.70
2018-07-15T10:29:04.414Z,29.72
2018-07-15T10:30:04.374Z,29.59
2018-07-15T10:31:04.330Z,29.79
2018-07-15T10:32:04.289Z,29.81
2018-07-15T10:33:04.296Z,29.94
2018-07-15T10:34:04.207Z,30.07
2018-07-15T10:35:04.164Z,30.12
2018-07-15T10:36:04.123Z,30.05
2018-07-15T10:37:04.082Z,29.94
2018-07-15T10:38:04.040Z,29.92
2018-07-15T10:39:04.063Z,29.93
2018-07-15T10:40:03.959Z,29.97
2018-07-15T10:41:03.916Z,29.96
2018-07-15T10:42:03.876Z,29.94
2018-07-15T10:43:03.835Z,30.00
2018-07-15T10:44:03.801Z,30.05
2018-07-15T10:45:03.752Z,29.96
2018-07-15T10:46:03.712Z,29.99
2018-07-15T10:47:03.669Z,30.02
2018-07-15T10:48:03.627Z,30.14
2018-07-15T10:49:03.587Z,30.11
2018-07-15T10:50:03.552Z,29.99
2018-07-15T10:51:03.505Z,29.84
2018-07-15T10:52:03.462Z,29.82
2018-07-15T10:53:03.424Z,29.84
2018-07-15T10:54:03.389Z,29.90
2018-07-15T10:55:03.342Z,29.90
2018-07-15T10:56:03.304Z,29.93
2018-07-15T10:57:03.258Z,29.92
2018-07-15T10:58:03.218Z,30.02
2018-07-15T10:59:03.175Z,30.03
2018-07-15T11:00:03.133Z,29.86
2018-07-15T11:01:03.101Z,29.74
2018-07-15T11:02:03.053Z,29.68
2018-07-15T11:03:03.011Z,29.60
2018-07-15T11:04:02.977Z,29.62
2018-07-15T11:05:02.932Z,29.56
2018-07-15T11:06:02.889Z,29.45
2018-07-15T11:07:02.846Z,29.38
2018-07-15T11:08:02.804Z,29.38
2018-07-15T11:09:02.764Z,29.47
2018-07-15T11:10:02.723Z,29.50
2018-07-15T11:11:02.682Z,29.57
2018-07-15T11:12:02.640Z,29.60
2018-07-15T11:13:02.598Z,29.72
2018-07-15T11:14:02.558Z,29.74
2018-07-15T11:15:02.516Z,29.77
2018-07-15T11:16:02.474Z,29.66
2018-07-15T11:17:02.433Z,29.74
2018-07-15T11:18:02.395Z,29.57
2018-07-15T11:19:02.350Z,29.52
2018-07-15T11:20:02.309Z,29.43
2018-07-15T11:21:02.269Z,29.41
2018-07-15T11:22:02.228Z,29.38
2018-07-15T11:23:02.184Z,29.29
2018-07-15T11:24:02.144Z,29.23
2018-07-15T11:25:02.105Z,29.25
2018-07-15T11:26:02.130Z,29.25
2018-07-15T11:27:02.019Z,29.23
2018-07-15T11:28:01.977Z,29.22
2018-07-15T11:29:01.935Z,29.04
2018-07-15T11:30:01.896Z,29.10
2018-07-15T11:31:01.867Z,29.19
2018-07-15T11:32:01.812Z,29.18
2018-07-15T11:33:01.769Z,29.13
2018-07-15T11:34:01.729Z,29.18
2018-07-15T11:35:01.692Z,29.15
2018-07-15T11:36:01.653Z,29.00
2018-07-15T11:37:01.605Z,28.84
2018-07-15T11:38:01.564Z,28.87
2018-07-15T11:39:01.537Z,28.80
2018-07-15T11:40:01.486Z,28.70
2018-07-15T11:41:01.437Z,28.63
2018-07-15T11:42:01.397Z,28.51
2018-07-15T11:43:01.355Z,28.28
2018-07-15T11:44:01.314Z,28.26
2018-07-15T11:45:01.271Z,28.26
2018-07-15T11:46:01.240Z,28.14
2018-07-15T11:47:01.186Z,28.13
2018-07-15T11:48:01.143Z,28.11
2018-07-15T11:49:01.101Z,28.22
2018-07-15T11:50:01.085Z,28.11
2018-07-15T11:51:01.017Z,28.11
2018-07-15T11:52:00.977Z,28.19
2018-07-15T11:53:00.937Z,28.06
2018-07-15T11:54:00.891Z,28.06
2018-07-15T11:55:00.848Z,28.10
2018-07-15T11:56:00.806Z,28.11
2018-07-15T11:57:00.764Z,28.06
2018-07-15T11:58:00.723Z,27.99
2018-07-15T11:59:00.681Z,28.04
2018-07-15T12:00:00.637Z,28.06
2018-07-15T12:01:00.594Z,27.96
2018-07-15T12:02:00.641Z,27.91
2018-07-15T12:03:00.509Z,27.99
2018-07-15T12:04:00.471Z,27.95
2018-07-15T12:05:00.425Z,27.94
2018-07-15T12:06:00.385Z,27.91
2018-07-15T12:07:00.344Z,27.88
2018-07-15T12:08:00.303Z,27.96
2018-07-15T12:09:00.256Z,27.86
2018-07-15T12:10:00.215Z,27.85
2018-07-15T12:11:00.203Z,27.84
2018-07-15T12:12:00.130Z,27.86
2018-07-15T12:13:00.102Z,27.80
2018-07-15T12:14:00.048Z,27.82
2018-07-15T12:15:00.004Z,27.66
2018-07-15T12:15:59.959Z,27.59
2018-07-15T12:16:59.926Z,27.54
2018-07-15T12:17:59.876Z,27.36
2018-07-15T12:18:59.834Z,27.10
2018-07-15T12:19:59.791Z,27.16
2018-07-15T12:20:59.748Z,27.16
2018-07-15T12:21:59.706Z,27.19
2018-07-15T12:22:59.661Z,27.13
2018-07-15T12:23:59.618Z,27.09
2018-07-15T12:24:59.576Z,27.17
2018-07-15T12:25:59.536Z,27.01
2018-07-15T12:26:59.491Z,27.04
2018-07-15T12:27:59.449Z,27.10
2018-07-15T12:28:59.404Z,27.09
2018-07-15T12:29:59.362Z,27.19
2018-07-15T12:30:59.318Z,27.19
2018-07-15T12:31:59.275Z,27.14
2018-07-15T12:32:59.231Z,27.13
2018-07-15T12:33:59.190Z,27.10
2018-07-15T12:34:59.148Z,27.14
2018-07-15T12:35:59.102Z,27.28
2018-07-15T12:36:59.061Z,27.26
2018-07-15T12:37:59.023Z,27.23
2018-07-15T12:38:58.977Z,27.38
2018-07-15T12:39:58.931Z,27.31
2018-07-15T12:40:58.889Z,27.39
2018-07-15T12:41:58.847Z,27.43
2018-07-15T12:42:58.804Z,27.33
2018-07-15T12:43:58.772Z,27.42
2018-07-15T12:44:58.716Z,27.47
2018-07-15T12:45:58.675Z,27.43
2018-07-15T12:46:58.631Z,27.35
2018-07-15T12:47:58.590Z,27.43
2018-07-15T12:48:58.546Z,27.42
2018-07-15T12:49:58.503Z,27.41
2018-07-15T12:50:58.463Z,27.33
2018-07-15T12:51:58.422Z,27.36